Portada
METAR-TAF:

METAR-TAF

Aeroports :

Quibdó, Colòmbia

latitud: 05-43N, longitud: 076-37W, altitud: 53 m

Observació

L'informe es va fer fa 1 hora i 14 minuts, a les 19:00 UTC
Vent calma
Temperatura 31°C
Humitat 66%
Pressió 1009 hPa
Visibilitat 10 km o més
Núvols disperses a una alçada de 2500 ft

METAR: SKUI 141900Z 00000KT 9999 SCT025 31/24 A2980 METAR

Hora: 15:14 (20:14 UTC)


TAF: manca

Observacions i pronòstics meteorològics de més de 4000 aeroports (METAR i TAF).

Les estacions disponibles són els punts grocs i vermells al mapa.

Posi el ratolí al punt desitjat per veure el nom de l'estació.

Feu clic per veure les observacions i els pronòstics meteorològics.

Per canviar el mapa: feu clic els botons verds amb una creu de color negre per apropar; al botó verd amb un guió per allunyar la imatge; o en les fletxes verdes per a mapes adjacents.


METAR-TAF: